sensor_id;sensor_type;location;lat;lon;timestamp;P1;durP1;ratioP1;P2;durP2;ratioP2
12135;SDS011;6131;56.420;15.548;2024-01-06T00:01:41;1.73;;;1.00;;
12135;SDS011;6131;56.420;15.548;2024-01-06T00:04:07;1.83;;;1.30;;
12135;SDS011;6131;56.420;15.548;2024-01-06T00:06:33;2.07;;;1.30;;
12135;SDS011;6131;56.420;15.548;2024-01-06T00:08:59;2.07;;;1.43;;
12135;SDS011;6131;56.420;15.548;2024-01-06T00:11:25;1.63;;;1.20;;
12135;SDS011;6131;56.420;15.548;2024-01-06T00:13:51;1.37;;;1.13;;
12135;SDS011;6131;56.420;15.548;2024-01-06T00:16:18;1.90;;;1.27;;
12135;SDS011;6131;56.420;15.548;2024-01-06T00:18:44;1.77;;;0.90;;
12135;SDS011;6131;56.420;15.548;2024-01-06T00:21:10;1.67;;;1.10;;
12135;SDS011;6131;56.420;15.548;2024-01-06T00:23:36;3.37;;;1.50;;
12135;SDS011;6131;56.420;15.548;2024-01-06T00:26:03;2.07;;;1.23;;
12135;SDS011;6131;56.420;15.548;2024-01-06T00:28:29;1.57;;;1.10;;
12135;SDS011;6131;56.420;15.548;2024-01-06T00:30:55;1.40;;;0.97;;
12135;SDS011;6131;56.420;15.548;2024-01-06T00:33:21;2.57;;;1.20;;
12135;SDS011;6131;56.420;15.548;2024-01-06T00:35:47;0.93;;;0.83;;
12135;SDS011;6131;56.420;15.548;2024-01-06T00:38:13;1.10;;;1.00;;
12135;SDS011;6131;56.420;15.548;2024-01-06T00:40:39;1.80;;;1.20;;
12135;SDS011;6131;56.420;15.548;2024-01-06T00:43:05;2.10;;;0.93;;
12135;SDS011;6131;56.420;15.548;2024-01-06T00:45:31;1.20;;;0.87;;
12135;SDS011;6131;56.420;15.548;2024-01-06T00:47:57;1.77;;;1.10;;
12135;SDS011;6131;56.420;15.548;2024-01-06T00:50:23;1.23;;;0.93;;
12135;SDS011;6131;56.420;15.548;2024-01-06T00:52:49;0.83;;;0.73;;
12135;SDS011;6131;56.420;15.548;2024-01-06T00:55:21;2.93;;;1.10;;
12135;SDS011;6131;56.420;15.548;2024-01-06T00:57:48;1.90;;;0.90;;
12135;SDS011;6131;56.420;15.548;2024-01-06T01:00:14;1.47;;;0.80;;
12135;SDS011;6131;56.420;15.548;2024-01-06T01:02:40;2.20;;;1.20;;
12135;SDS011;6131;56.420;15.548;2024-01-06T01:05:06;1.10;;;0.90;;
12135;SDS011;6131;56.420;15.548;2024-01-06T01:07:33;1.90;;;1.10;;
12135;SDS011;6131;56.420;15.548;2024-01-06T01:09:59;1.30;;;1.10;;
12135;SDS011;6131;56.420;15.548;2024-01-06T01:12:25;2.37;;;0.97;;
12135;SDS011;6131;56.420;15.548;2024-01-06T01:14:51;1.63;;;1.07;;
12135;SDS011;6131;56.420;15.548;2024-01-06T01:17:17;1.87;;;1.07;;
12135;SDS011;6131;56.420;15.548;2024-01-06T01:19:43;0.67;;;0.60;;
12135;SDS011;6131;56.420;15.548;2024-01-06T01:22:09;1.53;;;1.07;;
12135;SDS011;6131;56.420;15.548;2024-01-06T01:24:35;1.33;;;0.90;;
12135;SDS011;6131;56.420;15.548;2024-01-06T01:27:01;1.37;;;0.80;;
12135;SDS011;6131;56.420;15.548;2024-01-06T01:29:28;1.00;;;0.87;;
12135;SDS011;6131;56.420;15.548;2024-01-06T01:31:54;1.67;;;1.20;;
12135;SDS011;6131;56.420;15.548;2024-01-06T01:34:20;1.00;;;0.80;;
12135;SDS011;6131;56.420;15.548;2024-01-06T01:36:46;1.60;;;1.00;;
12135;SDS011;6131;56.420;15.548;2024-01-06T01:39:12;1.10;;;1.00;;
12135;SDS011;6131;56.420;15.548;2024-01-06T01:41:37;2.57;;;0.87;;
12135;SDS011;6131;56.420;15.548;2024-01-06T01:44:04;1.23;;;0.80;;
12135;SDS011;6131;56.420;15.548;2024-01-06T01:46:30;1.47;;;1.03;;
12135;SDS011;6131;56.420;15.548;2024-01-06T01:48:57;2.37;;;0.80;;
12135;SDS011;6131;56.420;15.548;2024-01-06T01:51:24;2.20;;;1.00;;
12135;SDS011;6131;56.420;15.548;2024-01-06T01:53:52;1.07;;;0.90;;
12135;SDS011;6131;56.420;15.548;2024-01-06T01:56:18;0.63;;;0.60;;
12135;SDS011;6131;56.420;15.548;2024-01-06T01:58:44;0.97;;;0.60;;
12135;SDS011;6131;56.420;15.548;2024-01-06T02:01:10;1.00;;;0.80;;
12135;SDS011;6131;56.420;15.548;2024-01-06T02:03:36;1.77;;;0.80;;
12135;SDS011;6131;56.420;15.548;2024-01-06T02:06:02;1.10;;;0.70;;
12135;SDS011;6131;56.420;15.548;2024-01-06T02:08:29;1.93;;;1.00;;
12135;SDS011;6131;56.420;15.548;2024-01-06T02:10:55;1.10;;;1.00;;
12135;SDS011;6131;56.420;15.548;2024-01-06T02:13:21;1.20;;;0.70;;
12135;SDS011;6131;56.420;15.548;2024-01-06T02:15:47;2.40;;;0.80;;
12135;SDS011;6131;56.420;15.548;2024-01-06T02:18:13;0.63;;;0.63;;
12135;SDS011;6131;56.420;15.548;2024-01-06T02:20:40;1.50;;;1.20;;
12135;SDS011;6131;56.420;15.548;2024-01-06T02:23:09;4.03;;;1.00;;
12135;SDS011;6131;56.420;15.548;2024-01-06T02:25:35;0.90;;;0.70;;
12135;SDS011;6131;56.420;15.548;2024-01-06T02:28:01;1.07;;;0.80;;
12135;SDS011;6131;56.420;15.548;2024-01-06T02:30:27;1.70;;;0.97;;
12135;SDS011;6131;56.420;15.548;2024-01-06T02:32:53;1.67;;;1.07;;
12135;SDS011;6131;56.420;15.548;2024-01-06T02:35:20;2.63;;;1.00;;
12135;SDS011;6131;56.420;15.548;2024-01-06T02:37:46;1.73;;;0.90;;
12135;SDS011;6131;56.420;15.548;2024-01-06T02:40:13;1.33;;;0.70;;
12135;SDS011;6131;56.420;15.548;2024-01-06T02:42:39;1.53;;;0.90;;
12135;SDS011;6131;56.420;15.548;2024-01-06T02:45:06;0.97;;;0.70;;
12135;SDS011;6131;56.420;15.548;2024-01-06T02:47:32;1.73;;;0.80;;
12135;SDS011;6131;56.420;15.548;2024-01-06T02:49:58;2.37;;;1.20;;
12135;SDS011;6131;56.420;15.548;2024-01-06T02:52:24;1.20;;;0.90;;
12135;SDS011;6131;56.420;15.548;2024-01-06T02:54:50;1.83;;;0.77;;
12135;SDS011;6131;56.420;15.548;2024-01-06T02:57:16;1.13;;;0.70;;
12135;SDS011;6131;56.420;15.548;2024-01-06T02:59:42;1.30;;;0.90;;
12135;SDS011;6131;56.420;15.548;2024-01-06T03:02:08;3.07;;;1.17;;
12135;SDS011;6131;56.420;15.548;2024-01-06T03:04:34;1.57;;;1.00;;
12135;SDS011;6131;56.420;15.548;2024-01-06T03:07:01;1.73;;;0.80;;
12135;SDS011;6131;56.420;15.548;2024-01-06T03:09:27;0.87;;;0.80;;
12135;SDS011;6131;56.420;15.548;2024-01-06T03:11:53;1.10;;;0.70;;
12135;SDS011;6131;56.420;15.548;2024-01-06T03:14:19;1.53;;;0.93;;
12135;SDS011;6131;56.420;15.548;2024-01-06T03:16:45;1.50;;;1.03;;
12135;SDS011;6131;56.420;15.548;2024-01-06T03:19:11;1.30;;;0.90;;
12135;SDS011;6131;56.420;15.548;2024-01-06T03:21:37;1.57;;;0.80;;
12135;SDS011;6131;56.420;15.548;2024-01-06T03:24:03;2.33;;;1.10;;
12135;SDS011;6131;56.420;15.548;2024-01-06T03:26:29;0.80;;;0.80;;
12135;SDS011;6131;56.420;15.548;2024-01-06T03:28:55;1.93;;;1.07;;
12135;SDS011;6131;56.420;15.548;2024-01-06T03:31:23;1.30;;;0.77;;
12135;SDS011;6131;56.420;15.548;2024-01-06T03:33:49;2.30;;;1.10;;
12135;SDS011;6131;56.420;15.548;2024-01-06T03:36:17;2.93;;;1.50;;
12135;SDS011;6131;56.420;15.548;2024-01-06T03:38:43;1.33;;;1.17;;
12135;SDS011;6131;56.420;15.548;2024-01-06T03:41:08;1.60;;;1.30;;
12135;SDS011;6131;56.420;15.548;2024-01-06T03:43:34;1.83;;;1.10;;
12135;SDS011;6131;56.420;15.548;2024-01-06T03:46:00;1.70;;;0.90;;
12135;SDS011;6131;56.420;15.548;2024-01-06T03:48:26;2.90;;;1.67;;
12135;SDS011;6131;56.420;15.548;2024-01-06T03:50:52;2.93;;;1.20;;
12135;SDS011;6131;56.420;15.548;2024-01-06T03:53:19;3.63;;;1.63;;
12135;SDS011;6131;56.420;15.548;2024-01-06T03:55:45;1.50;;;1.07;;
12135;SDS011;6131;56.420;15.548;2024-01-06T03:58:11;1.77;;;1.30;;
12135;SDS011;6131;56.420;15.548;2024-01-06T04:00:37;1.43;;;1.10;;
12135;SDS011;6131;56.420;15.548;2024-01-06T04:03:03;3.53;;;1.27;;
12135;SDS011;6131;56.420;15.548;2024-01-06T04:05:31;4.17;;;1.33;;
12135;SDS011;6131;56.420;15.548;2024-01-06T04:07:57;2.07;;;1.17;;
12135;SDS011;6131;56.420;15.548;2024-01-06T04:10:23;1.70;;;0.83;;
12135;SDS011;6131;56.420;15.548;2024-01-06T04:12:49;3.30;;;1.73;;
12135;SDS011;6131;56.420;15.548;2024-01-06T04:15:15;0.97;;;0.80;;
12135;SDS011;6131;56.420;15.548;2024-01-06T04:17:41;2.03;;;1.20;;
12135;SDS011;6131;56.420;15.548;2024-01-06T04:20:07;4.27;;;1.77;;
12135;SDS011;6131;56.420;15.548;2024-01-06T04:22:36;2.87;;;1.60;;
12135;SDS011;6131;56.420;15.548;2024-01-06T04:25:02;2.33;;;1.67;;
12135;SDS011;6131;56.420;15.548;2024-01-06T04:27:28;1.60;;;1.00;;
12135;SDS011;6131;56.420;15.548;2024-01-06T04:29:54;5.80;;;2.30;;
12135;SDS011;6131;56.420;15.548;2024-01-06T04:32:20;4.80;;;1.40;;
12135;SDS011;6131;56.420;15.548;2024-01-06T04:34:46;2.60;;;1.27;;
12135;SDS011;6131;56.420;15.548;2024-01-06T04:37:12;3.73;;;1.50;;
12135;SDS011;6131;56.420;15.548;2024-01-06T04:39:38;1.77;;;1.50;;
12135;SDS011;6131;56.420;15.548;2024-01-06T04:42:04;2.17;;;1.53;;
12135;SDS011;6131;56.420;15.548;2024-01-06T04:44:30;2.23;;;1.60;;
12135;SDS011;6131;56.420;15.548;2024-01-06T04:46:56;3.93;;;1.13;;
12135;SDS011;6131;56.420;15.548;2024-01-06T04:49:22;4.50;;;1.63;;
12135;SDS011;6131;56.420;15.548;2024-01-06T04:51:48;3.97;;;1.60;;
12135;SDS011;6131;56.420;15.548;2024-01-06T04:54:14;4.37;;;1.80;;
12135;SDS011;6131;56.420;15.548;2024-01-06T04:56:40;2.50;;;1.30;;
12135;SDS011;6131;56.420;15.548;2024-01-06T04:59:06;1.67;;;1.03;;
12135;SDS011;6131;56.420;15.548;2024-01-06T05:01:32;2.87;;;1.57;;
12135;SDS011;6131;56.420;15.548;2024-01-06T05:03:58;2.40;;;1.23;;
12135;SDS011;6131;56.420;15.548;2024-01-06T05:06:24;2.63;;;1.33;;
12135;SDS011;6131;56.420;15.548;2024-01-06T05:08:50;1.83;;;1.17;;
12135;SDS011;6131;56.420;15.548;2024-01-06T05:11:16;2.13;;;1.30;;
12135;SDS011;6131;56.420;15.548;2024-01-06T05:13:42;1.27;;;1.00;;
12135;SDS011;6131;56.420;15.548;2024-01-06T05:16:08;2.40;;;1.43;;
12135;SDS011;6131;56.420;15.548;2024-01-06T05:18:34;4.17;;;1.37;;
12135;SDS011;6131;56.420;15.548;2024-01-06T05:21:01;3.70;;;1.63;;
12135;SDS011;6131;56.420;15.548;2024-01-06T05:23:28;1.87;;;1.27;;
12135;SDS011;6131;56.420;15.548;2024-01-06T05:25:54;1.73;;;1.00;;
12135;SDS011;6131;56.420;15.548;2024-01-06T05:28:20;1.90;;;1.37;;
12135;SDS011;6131;56.420;15.548;2024-01-06T05:30:46;2.93;;;1.17;;
12135;SDS011;6131;56.420;15.548;2024-01-06T05:33:12;1.97;;;0.97;;
12135;SDS011;6131;56.420;15.548;2024-01-06T05:35:40;4.00;;;1.37;;
12135;SDS011;6131;56.420;15.548;2024-01-06T05:38:06;1.33;;;0.80;;
12135;SDS011;6131;56.420;15.548;2024-01-06T05:40:32;1.90;;;0.90;;
12135;SDS011;6131;56.420;15.548;2024-01-06T05:42:58;1.13;;;1.03;;
12135;SDS011;6131;56.420;15.548;2024-01-06T05:45:24;2.57;;;1.07;;
12135;SDS011;6131;56.420;15.548;2024-01-06T05:47:50;0.93;;;0.70;;
12135;SDS011;6131;56.420;15.548;2024-01-06T05:50:16;0.67;;;0.67;;
12135;SDS011;6131;56.420;15.548;2024-01-06T05:52:42;1.50;;;1.07;;
12135;SDS011;6131;56.420;15.548;2024-01-06T05:55:08;2.83;;;0.93;;
12135;SDS011;6131;56.420;15.548;2024-01-06T05:57:35;1.70;;;0.87;;
12135;SDS011;6131;56.420;15.548;2024-01-06T06:00:01;1.10;;;0.90;;
12135;SDS011;6131;56.420;15.548;2024-01-06T06:02:27;1.47;;;1.33;;
12135;SDS011;6131;56.420;15.548;2024-01-06T06:04:53;1.80;;;0.70;;
12135;SDS011;6131;56.420;15.548;2024-01-06T06:07:19;0.70;;;0.70;;
12135;SDS011;6131;56.420;15.548;2024-01-06T06:09:45;1.57;;;0.90;;
12135;SDS011;6131;56.420;15.548;2024-01-06T06:12:12;2.13;;;1.00;;
12135;SDS011;6131;56.420;15.548;2024-01-06T06:14:38;1.60;;;0.80;;
12135;SDS011;6131;56.420;15.548;2024-01-06T06:17:04;1.77;;;1.33;;
12135;SDS011;6131;56.420;15.548;2024-01-06T06:19:31;2.00;;;1.07;;
12135;SDS011;6131;56.420;15.548;2024-01-06T06:21:58;1.13;;;0.80;;
12135;SDS011;6131;56.420;15.548;2024-01-06T06:24:24;1.00;;;0.47;;
12135;SDS011;6131;56.420;15.548;2024-01-06T06:26:50;1.97;;;0.83;;
12135;SDS011;6131;56.420;15.548;2024-01-06T06:29:16;2.73;;;1.13;;
12135;SDS011;6131;56.420;15.548;2024-01-06T06:31:42;1.63;;;0.70;;
12135;SDS011;6131;56.420;15.548;2024-01-06T06:34:11;1.80;;;0.80;;
12135;SDS011;6131;56.420;15.548;2024-01-06T06:36:37;2.10;;;1.33;;
12135;SDS011;6131;56.420;15.548;2024-01-06T06:39:03;1.57;;;1.00;;
12135;SDS011;6131;56.420;15.548;2024-01-06T06:41:30;2.00;;;0.97;;
12135;SDS011;6131;56.420;15.548;2024-01-06T06:43:56;0.83;;;0.67;;
12135;SDS011;6131;56.420;15.548;2024-01-06T06:46:23;0.70;;;0.70;;
12135;SDS011;6131;56.420;15.548;2024-01-06T06:48:49;1.40;;;0.60;;
12135;SDS011;6131;56.420;15.548;2024-01-06T06:51:15;1.13;;;0.70;;
12135;SDS011;6131;56.420;15.548;2024-01-06T06:53:41;1.20;;;0.90;;
12135;SDS011;6131;56.420;15.548;2024-01-06T06:56:07;1.57;;;1.03;;
12135;SDS011;6131;56.420;15.548;2024-01-06T06:58:34;2.27;;;1.17;;
12135;SDS011;6131;56.420;15.548;2024-01-06T07:01:00;2.03;;;0.90;;
12135;SDS011;6131;56.420;15.548;2024-01-06T07:03:26;0.63;;;0.50;;
12135;SDS011;6131;56.420;15.548;2024-01-06T07:05:52;0.97;;;0.50;;
12135;SDS011;6131;56.420;15.548;2024-01-06T07:08:18;2.93;;;1.37;;
12135;SDS011;6131;56.420;15.548;2024-01-06T07:10:44;1.87;;;0.70;;
12135;SDS011;6131;56.420;15.548;2024-01-06T07:13:10;2.63;;;0.93;;
12135;SDS011;6131;56.420;15.548;2024-01-06T07:15:36;2.23;;;1.20;;
12135;SDS011;6131;56.420;15.548;2024-01-06T07:18:02;1.10;;;0.90;;
12135;SDS011;6131;56.420;15.548;2024-01-06T07:20:28;1.07;;;0.90;;
12135;SDS011;6131;56.420;15.548;2024-01-06T07:22:54;0.87;;;0.80;;
12135;SDS011;6131;56.420;15.548;2024-01-06T07:25:20;1.17;;;0.73;;
12135;SDS011;6131;56.420;15.548;2024-01-06T07:27:46;1.50;;;0.97;;
12135;SDS011;6131;56.420;15.548;2024-01-06T07:30:12;2.83;;;1.23;;
12135;SDS011;6131;56.420;15.548;2024-01-06T07:32:38;1.10;;;0.67;;
12135;SDS011;6131;56.420;15.548;2024-01-06T07:35:04;0.90;;;0.73;;
12135;SDS011;6131;56.420;15.548;2024-01-06T07:37:30;1.47;;;0.73;;
12135;SDS011;6131;56.420;15.548;2024-01-06T07:39:56;2.07;;;1.23;;
12135;SDS011;6131;56.420;15.548;2024-01-06T07:42:22;1.03;;;0.90;;
12135;SDS011;6131;56.420;15.548;2024-01-06T07:44:48;1.23;;;0.87;;
12135;SDS011;6131;56.420;15.548;2024-01-06T07:47:14;1.83;;;1.00;;
12135;SDS011;6131;56.420;15.548;2024-01-06T07:49:40;1.67;;;0.77;;
12135;SDS011;6131;56.420;15.548;2024-01-06T07:52:06;1.17;;;0.73;;
12135;SDS011;6131;56.420;15.548;2024-01-06T07:54:32;1.23;;;0.90;;
12135;SDS011;6131;56.420;15.548;2024-01-06T07:56:58;1.13;;;0.77;;
12135;SDS011;6131;56.420;15.548;2024-01-06T07:59:24;1.63;;;1.17;;
12135;SDS011;6131;56.420;15.548;2024-01-06T08:01:50;1.23;;;0.77;;
12135;SDS011;6131;56.420;15.548;2024-01-06T08:04:16;1.40;;;0.80;;
12135;SDS011;6131;56.420;15.548;2024-01-06T08:06:42;1.07;;;0.63;;
12135;SDS011;6131;56.420;15.548;2024-01-06T08:09:08;2.10;;;0.80;;
12135;SDS011;6131;56.420;15.548;2024-01-06T08:11:34;2.27;;;0.83;;
12135;SDS011;6131;56.420;15.548;2024-01-06T08:14:00;1.07;;;0.77;;
12135;SDS011;6131;56.420;15.548;2024-01-06T08:16:27;2.50;;;1.10;;
12135;SDS011;6131;56.420;15.548;2024-01-06T08:18:53;1.10;;;0.97;;
12135;SDS011;6131;56.420;15.548;2024-01-06T08:21:19;2.17;;;0.93;;
12135;SDS011;6131;56.420;15.548;2024-01-06T08:23:45;0.50;;;0.50;;
12135;SDS011;6131;56.420;15.548;2024-01-06T08:26:11;0.70;;;0.70;;
12135;SDS011;6131;56.420;15.548;2024-01-06T08:28:37;0.67;;;0.53;;
12135;SDS011;6131;56.420;15.548;2024-01-06T08:31:03;1.03;;;0.70;;
12135;SDS011;6131;56.420;15.548;2024-01-06T08:33:29;2.07;;;1.37;;
12135;SDS011;6131;56.420;15.548;2024-01-06T08:35:55;4.13;;;2.13;;
12135;SDS011;6131;56.420;15.548;2024-01-06T08:38:21;4.67;;;3.30;;
12135;SDS011;6131;56.420;15.548;2024-01-06T08:40:47;8.00;;;2.93;;
12135;SDS011;6131;56.420;15.548;2024-01-06T08:43:15;8.30;;;4.30;;
12135;SDS011;6131;56.420;15.548;2024-01-06T08:45:41;22.87;;;9.90;;
12135;SDS011;6131;56.420;15.548;2024-01-06T08:48:07;23.50;;;9.73;;
12135;SDS011;6131;56.420;15.548;2024-01-06T08:50:33;7.57;;;5.37;;
12135;SDS011;6131;56.420;15.548;2024-01-06T08:52:59;4.40;;;2.30;;
12135;SDS011;6131;56.420;15.548;2024-01-06T08:55:25;5.60;;;2.60;;
12135;SDS011;6131;56.420;15.548;2024-01-06T08:57:51;5.87;;;2.93;;
12135;SDS011;6131;56.420;15.548;2024-01-06T09:00:17;4.00;;;2.37;;
12135;SDS011;6131;56.420;15.548;2024-01-06T09:02:43;2.33;;;1.30;;
12135;SDS011;6131;56.420;15.548;2024-01-06T09:05:11;4.27;;;1.73;;
12135;SDS011;6131;56.420;15.548;2024-01-06T09:07:37;7.77;;;2.10;;
12135;SDS011;6131;56.420;15.548;2024-01-06T09:10:03;2.57;;;1.70;;
12135;SDS011;6131;56.420;15.548;2024-01-06T09:12:29;3.67;;;1.90;;
12135;SDS011;6131;56.420;15.548;2024-01-06T09:14:55;3.57;;;1.77;;
12135;SDS011;6131;56.420;15.548;2024-01-06T09:17:21;2.03;;;1.30;;
12135;SDS011;6131;56.420;15.548;2024-01-06T09:19:47;7.20;;;2.17;;
12135;SDS011;6131;56.420;15.548;2024-01-06T09:22:13;5.77;;;2.43;;
12135;SDS011;6131;56.420;15.548;2024-01-06T09:24:40;4.83;;;2.20;;
12135;SDS011;6131;56.420;15.548;2024-01-06T09:27:06;5.73;;;2.60;;
12135;SDS011;6131;56.420;15.548;2024-01-06T09:29:32;5.93;;;2.57;;
12135;SDS011;6131;56.420;15.548;2024-01-06T09:31:58;4.77;;;2.63;;
12135;SDS011;6131;56.420;15.548;2024-01-06T09:34:24;5.20;;;2.40;;
12135;SDS011;6131;56.420;15.548;2024-01-06T09:36:50;5.13;;;2.97;;
12135;SDS011;6131;56.420;15.548;2024-01-06T09:39:16;3.80;;;2.00;;
12135;SDS011;6131;56.420;15.548;2024-01-06T09:41:42;4.33;;;2.47;;
12135;SDS011;6131;56.420;15.548;2024-01-06T09:44:08;5.97;;;3.20;;
12135;SDS011;6131;56.420;15.548;2024-01-06T09:46:34;4.73;;;2.47;;
12135;SDS011;6131;56.420;15.548;2024-01-06T09:49:02;5.13;;;1.50;;
12135;SDS011;6131;56.420;15.548;2024-01-06T09:51:28;3.27;;;2.17;;
12135;SDS011;6131;56.420;15.548;2024-01-06T09:53:58;4.67;;;2.10;;
12135;SDS011;6131;56.420;15.548;2024-01-06T09:56:28;5.00;;;2.43;;
12135;SDS011;6131;56.420;15.548;2024-01-06T09:58:54;4.33;;;1.93;;
12135;SDS011;6131;56.420;15.548;2024-01-06T10:01:20;4.27;;;2.00;;
12135;SDS011;6131;56.420;15.548;2024-01-06T10:03:47;4.53;;;1.90;;
12135;SDS011;6131;56.420;15.548;2024-01-06T10:06:13;3.97;;;2.07;;
12135;SDS011;6131;56.420;15.548;2024-01-06T10:08:41;5.57;;;2.83;;
12135;SDS011;6131;56.420;15.548;2024-01-06T10:11:08;5.73;;;2.23;;
12135;SDS011;6131;56.420;15.548;2024-01-06T10:13:35;3.40;;;1.73;;
12135;SDS011;6131;56.420;15.548;2024-01-06T10:16:02;2.93;;;1.70;;
12135;SDS011;6131;56.420;15.548;2024-01-06T10:18:28;2.97;;;1.80;;
12135;SDS011;6131;56.420;15.548;2024-01-06T10:20:55;2.80;;;1.70;;
12135;SDS011;6131;56.420;15.548;2024-01-06T10:23:24;8.27;;;1.60;;
12135;SDS011;6131;56.420;15.548;2024-01-06T10:25:52;3.10;;;1.80;;
12135;SDS011;6131;56.420;15.548;2024-01-06T10:28:20;5.57;;;1.53;;
12135;SDS011;6131;56.420;15.548;2024-01-06T10:30:47;2.77;;;1.40;;
12135;SDS011;6131;56.420;15.548;2024-01-06T10:33:13;2.30;;;1.30;;
12135;SDS011;6131;56.420;15.548;2024-01-06T10:35:39;3.13;;;1.60;;
12135;SDS011;6131;56.420;15.548;2024-01-06T10:38:06;2.77;;;1.40;;
12135;SDS011;6131;56.420;15.548;2024-01-06T10:40:32;2.37;;;1.60;;
12135;SDS011;6131;56.420;15.548;2024-01-06T10:42:59;2.47;;;1.53;;
12135;SDS011;6131;56.420;15.548;2024-01-06T10:45:25;3.30;;;1.63;;
12135;SDS011;6131;56.420;15.548;2024-01-06T10:47:52;1.40;;;1.30;;
12135;SDS011;6131;56.420;15.548;2024-01-06T10:50:19;3.30;;;1.70;;
12135;SDS011;6131;56.420;15.548;2024-01-06T10:52:46;3.70;;;1.30;;
12135;SDS011;6131;56.420;15.548;2024-01-06T10:55:13;2.50;;;1.53;;
12135;SDS011;6131;56.420;15.548;2024-01-06T10:57:43;2.20;;;1.50;;
12135;SDS011;6131;56.420;15.548;2024-01-06T11:00:10;2.23;;;1.40;;
12135;SDS011;6131;56.420;15.548;2024-01-06T11:02:36;1.50;;;1.23;;
12135;SDS011;6131;56.420;15.548;2024-01-06T11:05:03;2.27;;;1.40;;
12135;SDS011;6131;56.420;15.548;2024-01-06T11:07:32;3.53;;;1.60;;
12135;SDS011;6131;56.420;15.548;2024-01-06T11:12:29;4.17;;;1.57;;
12135;SDS011;6131;56.420;15.548;2024-01-06T11:14:55;2.63;;;1.80;;
12135;SDS011;6131;56.420;15.548;2024-01-06T11:20:20;2.57;;;1.60;;
12135;SDS011;6131;56.420;15.548;2024-01-06T11:22:47;4.37;;;1.90;;
12135;SDS011;6131;56.420;15.548;2024-01-06T11:25:14;4.50;;;1.50;;
12135;SDS011;6131;56.420;15.548;2024-01-06T11:27:41;2.60;;;1.43;;
12135;SDS011;6131;56.420;15.548;2024-01-06T11:30:07;2.10;;;1.40;;
12135;SDS011;6131;56.420;15.548;2024-01-06T11:35:10;2.90;;;1.60;;
12135;SDS011;6131;56.420;15.548;2024-01-06T11:37:50;1.90;;;1.33;;
12135;SDS011;6131;56.420;15.548;2024-01-06T11:42:56;2.37;;;1.77;;
12135;SDS011;6131;56.420;15.548;2024-01-06T11:45:23;3.80;;;1.50;;
12135;SDS011;6131;56.420;15.548;2024-01-06T11:47:49;2.43;;;1.50;;
12135;SDS011;6131;56.420;15.548;2024-01-06T11:50:19;2.17;;;1.50;;
12135;SDS011;6131;56.420;15.548;2024-01-06T11:52:45;3.17;;;1.70;;
12135;SDS011;6131;56.420;15.548;2024-01-06T11:55:11;4.40;;;2.00;;
12135;SDS011;6131;56.420;15.548;2024-01-06T11:57:37;3.40;;;1.97;;
12135;SDS011;6131;56.420;15.548;2024-01-06T12:00:04;2.57;;;1.87;;
12135;SDS011;6131;56.420;15.548;2024-01-06T12:02:30;3.90;;;2.00;;
12135;SDS011;6131;56.420;15.548;2024-01-06T12:04:56;5.30;;;1.60;;
12135;SDS011;6131;56.420;15.548;2024-01-06T12:07:22;2.70;;;1.80;;
12135;SDS011;6131;56.420;15.548;2024-01-06T12:09:48;2.60;;;1.70;;
12135;SDS011;6131;56.420;15.548;2024-01-06T12:12:15;4.37;;;1.90;;
12135;SDS011;6131;56.420;15.548;2024-01-06T12:14:41;4.07;;;1.37;;
12135;SDS011;6131;56.420;15.548;2024-01-06T12:17:08;1.40;;;1.30;;
12135;SDS011;6131;56.420;15.548;2024-01-06T12:19:34;3.07;;;1.67;;
12135;SDS011;6131;56.420;15.548;2024-01-06T12:22:01;2.10;;;1.30;;
12135;SDS011;6131;56.420;15.548;2024-01-06T12:24:28;2.93;;;1.30;;
12135;SDS011;6131;56.420;15.548;2024-01-06T12:26:55;4.20;;;1.33;;
12135;SDS011;6131;56.420;15.548;2024-01-06T12:29:22;2.90;;;1.73;;
12135;SDS011;6131;56.420;15.548;2024-01-06T12:31:48;1.60;;;1.20;;
12135;SDS011;6131;56.420;15.548;2024-01-06T12:34:14;2.67;;;1.70;;
12135;SDS011;6131;56.420;15.548;2024-01-06T12:36:41;2.57;;;1.50;;
12135;SDS011;6131;56.420;15.548;2024-01-06T12:39:12;1.80;;;1.40;;
12135;SDS011;6131;56.420;15.548;2024-01-06T12:41:39;2.83;;;1.90;;
12135;SDS011;6131;56.420;15.548;2024-01-06T12:44:06;4.80;;;1.80;;
12135;SDS011;6131;56.420;15.548;2024-01-06T12:46:32;3.17;;;1.93;;
12135;SDS011;6131;56.420;15.548;2024-01-06T12:48:58;3.87;;;1.40;;
12135;SDS011;6131;56.420;15.548;2024-01-06T12:51:24;2.57;;;1.87;;
12135;SDS011;6131;56.420;15.548;2024-01-06T12:53:50;2.40;;;2.00;;
12135;SDS011;6131;56.420;15.548;2024-01-06T12:56:17;2.77;;;1.97;;
12135;SDS011;6131;56.420;15.548;2024-01-06T12:58:43;4.33;;;1.80;;
12135;SDS011;6131;56.420;15.548;2024-01-06T13:01:09;2.13;;;1.60;;
12135;SDS011;6131;56.420;15.548;2024-01-06T13:03:36;3.00;;;1.83;;
12135;SDS011;6131;56.420;15.548;2024-01-06T13:06:02;4.43;;;2.03;;
12135;SDS011;6131;56.420;15.548;2024-01-06T13:08:28;2.20;;;1.63;;
12135;SDS011;6131;56.420;15.548;2024-01-06T13:10:54;2.40;;;1.73;;
12135;SDS011;6131;56.420;15.548;2024-01-06T13:13:21;2.77;;;1.83;;
12135;SDS011;6131;56.420;15.548;2024-01-06T13:15:47;2.87;;;1.77;;
12135;SDS011;6131;56.420;15.548;2024-01-06T13:18:13;2.43;;;1.70;;
12135;SDS011;6131;56.420;15.548;2024-01-06T13:20:39;3.73;;;1.80;;
12135;SDS011;6131;56.420;15.548;2024-01-06T13:23:06;1.93;;;1.67;;
12135;SDS011;6131;56.420;15.548;2024-01-06T13:25:32;2.70;;;1.97;;
12135;SDS011;6131;56.420;15.548;2024-01-06T13:27:58;1.73;;;1.40;;
12135;SDS011;6131;56.420;15.548;2024-01-06T13:30:24;2.77;;;1.50;;
12135;SDS011;6131;56.420;15.548;2024-01-06T13:32:51;3.77;;;1.83;;
12135;SDS011;6131;56.420;15.548;2024-01-06T13:35:19;2.93;;;1.73;;
12135;SDS011;6131;56.420;15.548;2024-01-06T13:37:45;2.50;;;1.50;;
12135;SDS011;6131;56.420;15.548;2024-01-06T13:40:13;3.60;;;1.70;;
12135;SDS011;6131;56.420;15.548;2024-01-06T13:42:39;2.90;;;1.90;;
12135;SDS011;6131;56.420;15.548;2024-01-06T13:45:06;3.97;;;1.97;;
12135;SDS011;6131;56.420;15.548;2024-01-06T13:47:32;2.10;;;1.80;;
12135;SDS011;6131;56.420;15.548;2024-01-06T13:49:58;2.37;;;1.87;;
12135;SDS011;6131;56.420;15.548;2024-01-06T13:52:24;2.97;;;1.73;;
12135;SDS011;6131;56.420;15.548;2024-01-06T13:54:51;3.37;;;1.70;;
12135;SDS011;6131;56.420;15.548;2024-01-06T13:57:17;3.57;;;2.30;;
12135;SDS011;6131;56.420;15.548;2024-01-06T13:59:43;3.90;;;2.20;;
12135;SDS011;6131;56.420;15.548;2024-01-06T14:02:09;2.57;;;1.90;;
12135;SDS011;6131;56.420;15.548;2024-01-06T14:04:35;2.47;;;1.87;;
12135;SDS011;6131;56.420;15.548;2024-01-06T14:07:01;3.33;;;1.97;;
12135;SDS011;6131;56.420;15.548;2024-01-06T14:09:28;2.23;;;1.80;;
12135;SDS011;6131;56.420;15.548;2024-01-06T14:11:54;4.43;;;2.03;;
12135;SDS011;6131;56.420;15.548;2024-01-06T14:14:20;3.00;;;2.00;;
12135;SDS011;6131;56.420;15.548;2024-01-06T14:16:46;2.90;;;1.70;;
12135;SDS011;6131;56.420;15.548;2024-01-06T14:19:12;4.17;;;1.63;;
12135;SDS011;6131;56.420;15.548;2024-01-06T14:21:41;2.53;;;1.77;;
12135;SDS011;6131;56.420;15.548;2024-01-06T14:24:07;2.70;;;1.80;;
12135;SDS011;6131;56.420;15.548;2024-01-06T14:26:33;3.70;;;2.10;;
12135;SDS011;6131;56.420;15.548;2024-01-06T14:28:59;4.77;;;1.90;;
12135;SDS011;6131;56.420;15.548;2024-01-06T14:31:25;3.50;;;1.80;;
12135;SDS011;6131;56.420;15.548;2024-01-06T14:33:52;3.30;;;1.93;;
12135;SDS011;6131;56.420;15.548;2024-01-06T14:36:18;3.50;;;2.13;;
12135;SDS011;6131;56.420;15.548;2024-01-06T14:38:44;3.20;;;1.87;;
12135;SDS011;6131;56.420;15.548;2024-01-06T14:41:10;3.07;;;2.10;;
12135;SDS011;6131;56.420;15.548;2024-01-06T14:43:36;3.23;;;1.80;;
12135;SDS011;6131;56.420;15.548;2024-01-06T14:46:02;4.03;;;2.23;;
12135;SDS011;6131;56.420;15.548;2024-01-06T14:48:30;3.80;;;2.03;;
12135;SDS011;6131;56.420;15.548;2024-01-06T14:50:56;3.37;;;2.00;;
12135;SDS011;6131;56.420;15.548;2024-01-06T14:53:22;4.37;;;2.00;;